createdAt,value
2023-05-07T00:00:47.063Z,9.07
2023-05-07T00:03:15.062Z,9.30
2023-05-07T00:05:43.346Z,8.47
2023-05-07T00:08:11.251Z,9.53
2023-05-07T00:10:40.970Z,9.07
2023-05-07T00:13:08.746Z,8.93
2023-05-07T00:15:36.531Z,8.43
2023-05-07T00:18:04.429Z,9.47
2023-05-07T00:20:33.897Z,8.53
2023-05-07T00:23:02.652Z,9.50
2023-05-07T00:25:30.382Z,9.20
2023-05-07T00:28:03.740Z,9.07
2023-05-07T00:30:31.544Z,9.63
2023-05-07T00:32:59.411Z,10.00
2023-05-07T00:35:27.315Z,9.03
2023-05-07T00:37:54.999Z,8.77
2023-05-07T00:40:22.713Z,7.90
2023-05-07T00:42:50.536Z,8.90
2023-05-07T00:45:20.182Z,8.60
2023-05-07T00:47:48.124Z,9.30
2023-05-07T00:50:16.459Z,8.90
2023-05-07T00:52:44.540Z,9.07
2023-05-07T00:55:14.110Z,9.50
2023-05-07T00:57:42.944Z,9.40
2023-05-07T01:00:14.139Z,9.30
2023-05-07T01:02:44.412Z,9.20
2023-05-07T01:05:15.138Z,9.73
2023-05-07T01:07:45.049Z,10.33
2023-05-07T01:10:14.283Z,9.70
2023-05-07T01:12:43.608Z,9.70
2023-05-07T01:15:12.305Z,10.10
2023-05-07T01:17:41.960Z,10.43
2023-05-07T01:20:13.189Z,10.27
2023-05-07T01:22:43.018Z,10.07
2023-05-07T01:25:10.952Z,9.93
2023-05-07T01:27:38.702Z,8.83
2023-05-07T01:30:07.480Z,9.13
2023-05-07T01:32:39.885Z,9.80
2023-05-07T01:35:11.860Z,9.93
2023-05-07T01:37:40.340Z,9.87
2023-05-07T01:40:10.994Z,9.90
2023-05-07T01:42:39.357Z,9.20
2023-05-07T01:45:08.416Z,9.93
2023-05-07T01:47:37.302Z,9.17
2023-05-07T01:50:06.676Z,9.47
2023-05-07T01:52:34.529Z,10.50
2023-05-07T01:55:02.373Z,9.10
2023-05-07T01:57:31.616Z,8.97
2023-05-07T01:59:59.404Z,9.73
2023-05-07T02:02:27.298Z,9.00
2023-05-07T02:04:55.112Z,9.30
2023-05-07T02:07:22.919Z,8.97
2023-05-07T02:09:50.660Z,9.10
2023-05-07T02:12:18.443Z,8.50
2023-05-07T02:14:47.559Z,8.60
2023-05-07T02:17:15.404Z,9.10
2023-05-07T02:19:43.273Z,8.23
2023-05-07T02:22:12.394Z,8.30
2023-05-07T02:24:40.249Z,8.60
2023-05-07T02:27:07.982Z,8.37
2023-05-07T02:29:35.773Z,7.97
2023-05-07T02:32:05.193Z,7.60
2023-05-07T02:34:32.979Z,6.63
2023-05-07T02:37:00.730Z,7.63
2023-05-07T02:39:28.505Z,8.10
2023-05-07T02:41:56.453Z,7.50
2023-05-07T02:44:24.251Z,8.00
2023-05-07T02:46:52.009Z,8.03
2023-05-07T02:49:21.953Z,7.77
2023-05-07T02:51:49.759Z,7.03
2023-05-07T02:54:18.767Z,7.27
2023-05-07T02:56:46.452Z,7.17
2023-05-07T02:59:14.242Z,7.20
2023-05-07T03:01:42.834Z,7.50
2023-05-07T03:04:10.829Z,6.63
2023-05-07T03:06:40.071Z,7.03
2023-05-07T03:09:07.879Z,6.83
2023-05-07T03:11:36.581Z,7.10
2023-05-07T03:14:04.458Z,7.43
2023-05-07T03:16:32.376Z,6.53
2023-05-07T03:19:00.241Z,7.20
2023-05-07T03:21:28.496Z,7.07
2023-05-07T03:23:57.635Z,6.80
2023-05-07T03:26:26.324Z,6.70
2023-05-07T03:28:54.084Z,6.70
2023-05-07T03:31:21.966Z,7.07
2023-05-07T03:33:53.958Z,7.50
2023-05-07T03:36:21.883Z,6.37
2023-05-07T03:38:50.467Z,6.33
2023-05-07T03:41:19.643Z,6.30
2023-05-07T03:43:47.389Z,6.80
2023-05-07T03:46:15.137Z,6.23
2023-05-07T03:48:42.918Z,6.20
2023-05-07T03:51:10.761Z,6.13
2023-05-07T03:53:38.554Z,6.10
2023-05-07T03:56:06.418Z,6.33
2023-05-07T03:58:35.903Z,6.47
2023-05-07T04:01:03.821Z,6.73
2023-05-07T04:03:31.826Z,6.17
2023-05-07T04:05:59.679Z,5.73
2023-05-07T04:08:27.705Z,6.20
2023-05-07T04:10:57.295Z,6.20
2023-05-07T04:13:25.252Z,6.60
2023-05-07T04:15:54.922Z,5.87
2023-05-07T04:18:22.807Z,5.93
2023-05-07T04:20:51.328Z,6.27
2023-05-07T04:23:19.148Z,5.37
2023-05-07T04:25:47.220Z,5.60
2023-05-07T04:28:15.008Z,5.90
2023-05-07T04:30:42.870Z,5.60
2023-05-07T04:33:12.543Z,5.23
2023-05-07T04:35:40.421Z,5.73
2023-05-07T04:38:08.172Z,5.37
2023-05-07T04:40:37.907Z,5.00
2023-05-07T04:43:05.837Z,5.50
2023-05-07T04:45:34.235Z,5.20
2023-05-07T04:48:02.197Z,5.00
2023-05-07T04:50:31.529Z,5.43
2023-05-07T04:52:59.393Z,5.00
2023-05-07T04:55:27.130Z,5.27
2023-05-07T04:57:55.385Z,6.00
2023-05-07T05:00:23.949Z,5.30
2023-05-07T05:02:51.721Z,5.60
2023-05-07T05:05:19.770Z,5.33
2023-05-07T05:07:48.874Z,5.70
2023-05-07T05:10:17.219Z,5.60
2023-05-07T05:12:45.366Z,5.10
2023-05-07T05:15:13.958Z,5.70
2023-05-07T05:17:42.142Z,5.40
2023-05-07T05:20:12.707Z,4.87
2023-05-07T05:22:40.734Z,5.23
2023-05-07T05:25:10.582Z,5.63
2023-05-07T05:27:42.758Z,5.90
2023-05-07T05:30:11.646Z,5.87
2023-05-07T05:32:40.085Z,6.00
2023-05-07T05:35:08.948Z,5.77
2023-05-07T05:37:36.671Z,5.80
2023-05-07T05:40:05.233Z,5.97
2023-05-07T05:42:34.360Z,6.20
2023-05-07T05:45:02.162Z,5.73
2023-05-07T05:47:29.982Z,6.17
2023-05-07T05:49:57.842Z,5.90
2023-05-07T05:52:26.056Z,6.17
2023-05-07T05:54:53.792Z,6.30
2023-05-07T05:57:21.816Z,6.10
2023-05-07T05:59:51.226Z,6.27
2023-05-07T06:02:19.116Z,6.20
2023-05-07T06:04:46.962Z,6.07
2023-05-07T06:07:14.836Z,6.07
2023-05-07T06:09:42.607Z,6.80
2023-05-07T06:12:10.365Z,5.90
2023-05-07T06:14:38.832Z,6.63
2023-05-07T06:17:08.107Z,6.10
2023-05-07T06:19:36.077Z,6.77
2023-05-07T06:22:03.854Z,6.73
2023-05-07T06:24:31.743Z,6.40
2023-05-07T06:27:00.492Z,6.53
2023-05-07T06:29:28.289Z,6.77
2023-05-07T06:31:56.475Z,7.10
2023-05-07T06:34:25.874Z,7.03
2023-05-07T06:36:53.652Z,6.70
2023-05-07T06:39:21.488Z,6.27
2023-05-07T06:41:49.266Z,6.80
2023-05-07T06:44:17.169Z,6.63
2023-05-07T06:46:44.976Z,6.53
2023-05-07T06:49:12.873Z,6.50
2023-05-07T06:51:42.187Z,6.60
2023-05-07T06:54:10.040Z,6.43
2023-05-07T06:56:37.834Z,6.43
2023-05-07T06:59:05.899Z,5.93
2023-05-07T07:01:33.895Z,6.90
2023-05-07T07:04:01.742Z,6.60
2023-05-07T07:06:29.508Z,6.40
2023-05-07T07:08:58.591Z,5.37
2023-05-07T07:11:26.535Z,5.53
2023-05-07T07:13:55.720Z,5.83
2023-05-07T07:16:23.951Z,5.40
2023-05-07T07:18:51.713Z,5.43
2023-05-07T07:21:19.556Z,5.40
2023-05-07T07:23:47.420Z,5.47
2023-05-07T07:26:16.881Z,5.20
2023-05-07T07:28:45.863Z,5.07
2023-05-07T07:31:14.043Z,4.90
2023-05-07T07:33:41.938Z,5.23
2023-05-07T07:36:10.016Z,4.67
2023-05-07T07:38:37.856Z,4.90
2023-05-07T07:41:06.078Z,4.83
2023-05-07T07:43:35.264Z,4.07
2023-05-07T07:46:03.293Z,4.70
2023-05-07T07:48:31.113Z,4.53
2023-05-07T07:50:58.997Z,4.63
2023-05-07T07:53:26.927Z,4.30
2023-05-07T07:55:59.201Z,4.40
2023-05-07T07:58:27.617Z,3.97
2023-05-07T08:00:59.226Z,4.00
2023-05-07T08:03:27.104Z,3.97
2023-05-07T08:05:55.016Z,3.93
2023-05-07T08:08:22.762Z,4.30
2023-05-07T08:10:52.283Z,4.00
2023-05-07T08:13:20.364Z,3.93
2023-05-07T08:15:48.098Z,4.33
2023-05-07T08:18:17.269Z,4.50
2023-05-07T08:20:45.055Z,3.80
2023-05-07T08:23:12.903Z,4.33
2023-05-07T08:25:41.120Z,3.63
2023-05-07T08:28:10.133Z,4.27
2023-05-07T08:30:38.133Z,4.23
2023-05-07T08:33:05.999Z,4.37
2023-05-07T08:35:35.260Z,4.50
2023-05-07T08:38:03.096Z,4.53
2023-05-07T08:40:31.191Z,4.07
2023-05-07T08:43:00.226Z,3.83
2023-05-07T08:45:30.154Z,4.43
2023-05-07T08:48:01.807Z,4.87
2023-05-07T08:50:29.882Z,4.57
2023-05-07T08:52:59.325Z,4.60
2023-05-07T08:55:27.237Z,5.37
2023-05-07T08:57:55.145Z,5.30
2023-05-07T09:00:23.130Z,4.43
2023-05-07T09:02:51.096Z,4.60
2023-05-07T09:05:19.689Z,4.33
2023-05-07T09:07:47.909Z,4.20
2023-05-07T09:10:17.266Z,4.40
2023-05-07T09:12:45.070Z,4.67
2023-05-07T09:15:13.646Z,4.57
2023-05-07T09:17:42.312Z,4.67
2023-05-07T09:20:11.204Z,4.70
2023-05-07T09:22:39.667Z,4.43
2023-05-07T09:25:09.664Z,4.20
2023-05-07T09:27:39.112Z,3.87
2023-05-07T09:30:08.079Z,4.18
2023-05-07T09:32:39.138Z,4.20
2023-05-07T09:35:08.239Z,3.90
2023-05-07T09:37:36.130Z,3.70
2023-05-07T09:40:04.425Z,4.15
2023-05-07T09:42:32.310Z,3.80
2023-05-07T09:45:02.712Z,3.67
2023-05-07T09:47:34.831Z,3.20
2023-05-07T09:50:07.688Z,3.07
2023-05-07T09:52:36.573Z,3.22
2023-05-07T09:55:04.674Z,3.85
2023-05-07T09:57:34.231Z,4.50
2023-05-07T10:00:05.330Z,4.55
2023-05-07T10:02:36.673Z,3.97
2023-05-07T10:05:05.333Z,3.40
2023-05-07T10:07:33.225Z,3.90
2023-05-07T10:10:01.838Z,3.20
2023-05-07T10:12:31.156Z,2.67
2023-05-07T10:14:59.218Z,3.17
2023-05-07T10:17:28.928Z,2.63
2023-05-07T10:19:57.404Z,3.67
2023-05-07T10:22:26.288Z,3.80
2023-05-07T10:24:56.471Z,3.78
2023-05-07T10:27:26.173Z,3.80
2023-05-07T10:30:15.833Z,3.33
2023-05-07T10:32:47.930Z,3.60
2023-05-07T10:35:20.167Z,3.20
2023-05-07T10:37:48.970Z,2.95
2023-05-07T10:40:18.731Z,3.88
2023-05-07T10:42:56.856Z,3.60
2023-05-07T10:45:25.758Z,3.30
2023-05-07T10:50:44.197Z,3.55
2023-05-07T10:53:36.056Z,3.08
2023-05-07T10:56:27.282Z,3.97
2023-05-07T10:58:55.120Z,3.67
2023-05-07T11:01:55.829Z,4.00
2023-05-07T11:04:28.814Z,3.80
2023-05-07T11:07:28.909Z,3.63
2023-05-07T11:10:14.463Z,3.20
2023-05-07T11:12:53.249Z,3.83
2023-05-07T11:15:40.866Z,4.18
2023-05-07T11:18:08.885Z,3.90
2023-05-07T11:20:58.511Z,3.72
2023-05-07T11:23:58.841Z,3.95
2023-05-07T11:26:27.453Z,4.00
2023-05-07T11:28:55.761Z,3.95
2023-05-07T11:31:29.423Z,4.85
2023-05-07T11:33:57.876Z,4.53
2023-05-07T11:36:27.954Z,4.10
2023-05-07T11:38:55.791Z,4.15
2023-05-07T11:41:23.755Z,4.07
2023-05-07T11:44:01.773Z,4.28
2023-05-07T11:46:30.629Z,4.78
2023-05-07T11:48:58.953Z,5.05
2023-05-07T11:51:28.352Z,5.60
2023-05-07T11:53:56.162Z,5.85
2023-05-07T11:56:24.059Z,4.97
2023-05-07T11:58:53.118Z,5.70
2023-05-07T12:01:21.175Z,4.88
2023-05-07T12:03:49.123Z,4.97
2023-05-07T12:06:18.783Z,4.13
2023-05-07T12:08:48.785Z,5.00
2023-05-07T12:11:19.483Z,4.78
2023-05-07T12:13:47.262Z,5.72
2023-05-07T12:16:15.254Z,4.75
2023-05-07T12:18:43.497Z,5.43
2023-05-07T12:21:11.914Z,8.05
2023-05-07T12:23:40.597Z,9.27
2023-05-07T12:26:11.310Z,8.27
2023-05-07T12:28:40.677Z,8.25
2023-05-07T12:31:09.545Z,7.35
2023-05-07T12:33:37.800Z,8.48
2023-05-07T12:36:08.964Z,8.68
2023-05-07T12:38:38.852Z,8.50
2023-05-07T12:41:08.322Z,9.02
2023-05-07T12:43:37.890Z,8.40
2023-05-07T12:46:07.837Z,10.23
2023-05-07T12:48:37.782Z,10.07
2023-05-07T12:51:07.685Z,10.52
2023-05-07T12:53:37.623Z,9.77
2023-05-07T12:56:07.965Z,9.90
2023-05-07T12:58:38.072Z,11.13
2023-05-07T13:01:10.847Z,10.93
2023-05-07T13:03:40.332Z,10.63
2023-05-07T13:06:10.516Z,10.47
2023-05-07T13:08:41.456Z,9.98
2023-05-07T13:11:11.247Z,9.97
2023-05-07T13:13:42.412Z,11.03
2023-05-07T13:16:11.948Z,10.18
2023-05-07T13:18:41.889Z,10.90
2023-05-07T13:21:11.115Z,10.20
2023-05-07T13:23:39.824Z,10.18
2023-05-07T13:26:24.839Z,10.52
2023-05-07T13:28:54.589Z,10.63
2023-05-07T13:31:22.631Z,10.83
2023-05-07T13:33:50.624Z,10.07
2023-05-07T13:36:18.486Z,10.97
2023-05-07T13:38:47.652Z,10.15
2023-05-07T13:41:15.795Z,10.23
2023-05-07T13:43:43.505Z,11.13
2023-05-07T13:46:12.660Z,10.88
2023-05-07T13:48:40.598Z,10.73
2023-05-07T13:51:08.680Z,11.10
2023-05-07T13:53:36.519Z,10.60
2023-05-07T13:56:05.607Z,11.18
2023-05-07T13:58:33.609Z,10.70
2023-05-07T14:01:01.819Z,11.00
2023-05-07T14:03:32.883Z,10.80
2023-05-07T14:06:01.009Z,11.57
2023-05-07T14:08:31.712Z,10.73
2023-05-07T14:10:59.751Z,11.00
2023-05-07T14:13:27.995Z,11.27
2023-05-07T14:15:55.957Z,10.73
2023-05-07T14:18:23.702Z,10.73
2023-05-07T14:20:52.895Z,11.00
2023-05-07T14:23:21.849Z,11.30
2023-05-07T14:25:49.597Z,11.67
2023-05-07T14:28:17.363Z,11.60
2023-05-07T14:30:45.188Z,11.80
2023-05-07T14:33:13.082Z,12.47
2023-05-07T14:35:40.916Z,11.83
2023-05-07T14:38:10.079Z,12.43
2023-05-07T14:40:37.823Z,12.63
2023-05-07T14:43:05.863Z,12.73
2023-05-07T14:45:33.638Z,12.93
2023-05-07T14:48:01.540Z,12.70
2023-05-07T14:50:29.371Z,13.03
2023-05-07T14:52:57.078Z,12.50
2023-05-07T14:55:26.315Z,13.13
2023-05-07T14:57:54.308Z,13.50
2023-05-07T15:00:22.365Z,12.77
2023-05-07T15:02:50.376Z,12.33
2023-05-07T15:05:19.587Z,12.27
2023-05-07T15:07:47.561Z,12.17
2023-05-07T15:10:15.319Z,12.40
2023-05-07T15:12:44.724Z,12.07
2023-05-07T15:15:13.242Z,11.17
2023-05-07T15:17:41.191Z,11.20
2023-05-07T15:20:09.714Z,11.53
2023-05-07T15:22:38.043Z,11.10
2023-05-07T15:25:06.736Z,11.33
2023-05-07T15:27:34.565Z,11.37
2023-05-07T15:30:03.846Z,10.67
2023-05-07T15:32:31.647Z,11.23
2023-05-07T15:34:59.441Z,11.70
2023-05-07T15:37:27.230Z,10.97
2023-05-07T15:39:54.989Z,11.40
2023-05-07T15:42:22.795Z,11.20
2023-05-07T15:44:50.571Z,11.73
2023-05-07T15:47:19.766Z,11.17
2023-05-07T15:49:47.678Z,10.57
2023-05-07T15:52:16.882Z,11.57
2023-05-07T15:54:44.589Z,11.20
2023-05-07T15:57:12.449Z,11.03
2023-05-07T15:59:40.241Z,11.70
2023-05-07T16:02:08.625Z,11.47
2023-05-07T16:04:38.883Z,10.53
2023-05-07T16:07:07.279Z,9.97
2023-05-07T16:09:35.601Z,10.83
2023-05-07T16:12:03.894Z,10.47
2023-05-07T16:14:31.644Z,10.53
2023-05-07T16:16:59.417Z,10.50
2023-05-07T16:19:27.235Z,10.80
2023-05-07T16:21:56.539Z,10.30
2023-05-07T16:24:24.497Z,10.17
2023-05-07T16:26:52.228Z,9.17
2023-05-07T16:29:20.924Z,8.37
2023-05-07T16:31:48.708Z,8.70
2023-05-07T16:34:16.561Z,8.67
2023-05-07T16:36:44.265Z,8.60
2023-05-07T16:39:13.408Z,8.70
2023-05-07T16:41:41.352Z,8.17
2023-05-07T16:44:09.567Z,8.10
2023-05-07T16:46:37.455Z,6.53
2023-05-07T16:49:05.302Z,6.73
2023-05-07T16:51:34.914Z,8.30
2023-05-07T16:54:03.197Z,8.70
2023-05-07T16:56:32.382Z,8.57
2023-05-07T16:59:00.159Z,9.17
2023-05-07T17:01:28.012Z,9.53
2023-05-07T17:03:55.876Z,9.30
2023-05-07T17:06:24.040Z,9.43
2023-05-07T17:08:55.953Z,8.77
2023-05-07T17:11:23.915Z,9.00
2023-05-07T17:13:53.350Z,8.47
2023-05-07T17:16:21.206Z,8.20
2023-05-07T17:18:48.928Z,8.00
2023-05-07T17:21:16.797Z,7.93
2023-05-07T17:23:44.599Z,7.10
2023-05-07T17:26:15.471Z,7.53
2023-05-07T17:28:43.255Z,7.60
2023-05-07T17:31:12.460Z,7.43
2023-05-07T17:33:40.578Z,7.67
2023-05-07T17:36:08.812Z,7.30
2023-05-07T17:38:36.559Z,7.80
2023-05-07T17:41:04.343Z,6.77
2023-05-07T17:43:32.116Z,7.30
2023-05-07T17:46:00.042Z,7.57
2023-05-07T17:48:29.319Z,7.67
2023-05-07T17:51:02.238Z,6.90
2023-05-07T17:53:29.998Z,7.37
2023-05-07T17:55:57.967Z,7.13
2023-05-07T17:58:27.128Z,7.63
2023-05-07T18:00:55.051Z,7.37
2023-05-07T18:03:24.502Z,6.78
2023-05-07T18:05:53.685Z,7.27
2023-05-07T18:08:21.534Z,6.50
2023-05-07T18:10:49.289Z,6.70
2023-05-07T18:13:17.179Z,6.70
2023-05-07T18:15:46.910Z,6.47
2023-05-07T18:18:14.799Z,6.30
2023-05-07T18:20:42.675Z,6.00
2023-05-07T18:23:11.833Z,5.85
2023-05-07T18:25:39.630Z,5.17
2023-05-07T18:28:07.441Z,5.25
2023-05-07T18:30:35.234Z,4.68
2023-05-07T18:33:03.157Z,4.80
2023-05-07T18:35:32.347Z,5.60
2023-05-07T18:38:00.201Z,5.70
2023-05-07T18:40:29.484Z,5.60
2023-05-07T18:42:57.288Z,5.73
2023-05-07T18:45:25.022Z,6.10
2023-05-07T18:47:52.878Z,6.83
2023-05-07T18:50:20.671Z,5.77
2023-05-07T18:52:48.442Z,6.23
2023-05-07T18:55:17.034Z,6.40
2023-05-07T18:57:46.092Z,6.57
2023-05-07T19:00:15.578Z,6.00
2023-05-07T19:02:43.512Z,6.33
2023-05-07T19:05:11.347Z,6.47
2023-05-07T19:07:39.112Z,6.70
2023-05-07T19:10:08.176Z,5.83
2023-05-07T19:12:35.983Z,7.10
2023-05-07T19:15:07.767Z,7.43
2023-05-07T19:17:36.319Z,5.83
2023-05-07T19:22:36.287Z,6.80
2023-05-07T19:25:04.318Z,7.40
2023-05-07T19:27:32.397Z,6.83
2023-05-07T19:30:00.401Z,6.73
2023-05-07T19:32:29.695Z,6.67
2023-05-07T19:34:57.508Z,7.17
2023-05-07T19:37:27.234Z,7.53
2023-05-07T19:39:55.972Z,7.40
2023-05-07T19:42:23.699Z,7.90
2023-05-07T19:44:51.561Z,7.40
2023-05-07T19:47:19.728Z,7.23
2023-05-07T19:49:48.900Z,8.47
2023-05-07T19:52:16.796Z,7.90
2023-05-07T19:54:44.597Z,7.60
2023-05-07T19:57:12.625Z,8.03
2023-05-07T19:59:40.676Z,7.80
2023-05-07T20:02:08.591Z,7.70
2023-05-07T20:04:38.249Z,7.90
2023-05-07T20:07:07.689Z,7.53
2023-05-07T20:09:35.566Z,7.93
2023-05-07T20:12:03.418Z,7.80
2023-05-07T20:14:32.116Z,8.03
2023-05-07T20:16:59.854Z,7.70
2023-05-07T20:19:27.666Z,8.83
2023-05-07T20:21:55.400Z,8.07
2023-05-07T20:24:24.581Z,7.93
2023-05-07T20:26:52.435Z,8.07
2023-05-07T20:29:20.236Z,7.97
2023-05-07T20:31:48.001Z,8.67
2023-05-07T20:34:15.893Z,8.57
2023-05-07T20:36:44.179Z,8.53
2023-05-07T20:39:16.022Z,9.27
2023-05-07T20:41:45.247Z,9.67
2023-05-07T20:44:13.160Z,8.83
2023-05-07T20:46:41.103Z,8.80
2023-05-07T20:49:08.818Z,9.13
2023-05-07T20:51:36.896Z,9.73
2023-05-07T20:54:04.819Z,9.43
2023-05-07T20:56:32.526Z,9.67
2023-05-07T20:59:01.653Z,9.93
2023-05-07T21:01:29.726Z,11.90
2023-05-07T21:03:57.645Z,12.17
2023-05-07T21:06:25.475Z,12.80
2023-05-07T21:08:53.185Z,14.00
2023-05-07T21:11:21.704Z,13.43
2023-05-07T21:13:49.390Z,12.90
2023-05-07T21:16:18.708Z,13.30
2023-05-07T21:18:46.511Z,13.13
2023-05-07T21:21:16.387Z,15.67
2023-05-07T21:23:44.178Z,16.47
2023-05-07T21:26:18.272Z,17.70
2023-05-07T21:28:46.106Z,16.50
2023-05-07T21:31:14.166Z,17.30
2023-05-07T21:33:43.991Z,17.23
2023-05-07T21:36:12.215Z,17.37
2023-05-07T21:38:40.685Z,16.97
2023-05-07T21:41:08.531Z,15.40
2023-05-07T21:43:36.206Z,16.47
2023-05-07T21:46:07.958Z,16.03
2023-05-07T21:48:35.892Z,16.70
2023-05-07T21:51:07.054Z,16.93
2023-05-07T21:53:35.689Z,16.17
2023-05-07T21:56:04.903Z,16.73
2023-05-07T21:58:33.158Z,16.37
2023-05-07T22:01:01.661Z,16.70
2023-05-07T22:03:29.789Z,15.57
2023-05-07T22:05:57.606Z,16.83
2023-05-07T22:08:27.167Z,17.50
2023-05-07T22:10:54.972Z,15.97
2023-05-07T22:13:22.824Z,17.37
2023-05-07T22:15:57.501Z,17.50
2023-05-07T22:18:26.048Z,17.33
2023-05-07T22:20:53.938Z,18.07
2023-05-07T22:23:21.758Z,18.33
2023-05-07T22:25:50.959Z,17.60
2023-05-07T22:28:20.832Z,17.97
2023-05-07T22:30:48.600Z,18.77
2023-05-07T22:33:16.392Z,18.50
2023-05-07T22:35:44.185Z,17.73
2023-05-07T22:38:12.015Z,16.70
2023-05-07T22:40:39.876Z,18.33
2023-05-07T22:43:08.954Z,18.17
2023-05-07T22:45:36.701Z,18.33
2023-05-07T22:48:04.885Z,19.03
2023-05-07T22:50:32.652Z,20.67
2023-05-07T22:53:00.395Z,20.70
2023-05-07T22:55:28.106Z,22.00
2023-05-07T22:57:55.896Z,21.13
2023-05-07T23:00:25.608Z,21.07
2023-05-07T23:02:53.529Z,20.80
2023-05-07T23:05:21.630Z,21.43
2023-05-07T23:07:49.450Z,20.97
2023-05-07T23:10:17.314Z,19.93
2023-05-07T23:12:49.227Z,21.60
2023-05-07T23:15:17.287Z,21.43
2023-05-07T23:17:46.859Z,20.37
2023-05-07T23:20:15.096Z,20.63
2023-05-07T23:22:42.959Z,21.40
2023-05-07T23:25:11.391Z,22.40
2023-05-07T23:27:39.190Z,21.43
2023-05-07T23:30:08.391Z,20.93
2023-05-07T23:32:36.261Z,21.73
2023-05-07T23:35:06.242Z,20.13
2023-05-07T23:37:34.001Z,22.33
2023-05-07T23:40:01.800Z,21.53
2023-05-07T23:42:29.548Z,19.57
2023-05-07T23:44:57.380Z,20.60
2023-05-07T23:47:25.585Z,20.00
2023-05-07T23:49:53.558Z,19.97
2023-05-07T23:52:22.882Z,20.17
2023-05-07T23:54:50.706Z,20.73
2023-05-07T23:57:18.868Z,19.67
2023-05-07T23:59:46.687Z,20.57
